GAP1024 RPLL-RPMZ
Flight info
| Callsign | GAP1024 |
|---|---|
| Flight time | N/A |
| Altitude | 35000 |
| Route | VERDE2R VERDE A461 TINDO TINDO1E |
| Aircraft | A321/M-SDE3FGHIRWY/LB1 |
Departure
| Time | N/A |
|---|---|
| Airport | Ninoy Aquino International Airport (RPLL) |
Arrival
| Time | 2026-05-08 06:23 |
|---|---|
| Airport | Zamboanga International Airport (RPMZ) |
| Time | Latitude | Longitude | Altitude | Speed | Heading |
|---|---|---|---|---|---|
| 2026-05-08 05:55 | 9.31265 | 121.61564 | 34789 ft | 445 kts | 170° |
| 2026-05-08 05:55 | 9.25116 | 121.62704 | 34788 ft | 444 kts | 171° |
| 2026-05-08 05:56 | 9.18997 | 121.63836 | 34789 ft | 444 kts | 171° |
| 2026-05-08 05:56 | 9.12920 | 121.64960 | 34789 ft | 443 kts | 171° |
| 2026-05-08 05:57 | 9.06879 | 121.66077 | 34784 ft | 443 kts | 171° |
| 2026-05-08 05:57 | 9.01373 | 121.67095 | 34780 ft | 443 kts | 171° |
| 2026-05-08 05:58 | 8.95274 | 121.68222 | 34778 ft | 444 kts | 171° |
| 2026-05-08 05:58 | 8.89160 | 121.69353 | 34777 ft | 444 kts | 171° |
| 2026-05-08 05:59 | 8.83030 | 121.70486 | 34776 ft | 444 kts | 170° |
| 2026-05-08 05:59 | 8.76938 | 121.71611 | 34780 ft | 444 kts | 171° |
| 2026-05-08 06:00 | 8.70854 | 121.72736 | 34776 ft | 443 kts | 171° |
| 2026-05-08 06:00 | 8.64747 | 121.73862 | 34764 ft | 444 kts | 171° |
| 2026-05-08 06:00 | 8.61688 | 121.74425 | 34133 ft | 450 kts | 171° |
| 2026-05-08 06:01 | 8.58596 | 121.74994 | 33221 ft | 453 kts | 171° |
| 2026-05-08 06:01 | 8.55497 | 121.75567 | 32470 ft | 452 kts | 171° |
| 2026-05-08 06:01 | 8.52412 | 121.76135 | 31804 ft | 451 kts | 170° |
| 2026-05-08 06:01 | 8.49301 | 121.76704 | 31083 ft | 451 kts | 170° |
| 2026-05-08 06:02 | 8.46211 | 121.77271 | 30339 ft | 452 kts | 169° |
| 2026-05-08 06:02 | 8.43131 | 121.77835 | 29564 ft | 453 kts | 169° |
| 2026-05-08 06:02 | 8.40025 | 121.78407 | 28954 ft | 450 kts | 168° |
| 2026-05-08 06:02 | 8.36955 | 121.78973 | 28461 ft | 444 kts | 168° |
| 2026-05-08 06:03 | 8.33904 | 121.79537 | 27964 ft | 438 kts | 168° |
| 2026-05-08 06:03 | 8.30947 | 121.80084 | 27482 ft | 433 kts | 168° |
| 2026-05-08 06:03 | 8.27968 | 121.80634 | 26987 ft | 428 kts | 168° |
| 2026-05-08 06:03 | 8.25073 | 121.81168 | 26509 ft | 423 kts | 168° |
| 2026-05-08 06:04 | 8.22153 | 121.81705 | 26021 ft | 419 kts | 168° |
| 2026-05-08 06:04 | 8.19294 | 121.82232 | 25536 ft | 414 kts | 167° |
| 2026-05-08 06:04 | 8.16495 | 121.82747 | 25074 ft | 410 kts | 167° |
| 2026-05-08 06:04 | 8.13666 | 121.83268 | 24595 ft | 406 kts | 167° |
| 2026-05-08 06:05 | 8.10887 | 121.83779 | 24127 ft | 402 kts | 167° |
| 2026-05-08 06:05 | 8.08163 | 121.84281 | 23668 ft | 399 kts | 167° |
| 2026-05-08 06:05 | 8.05406 | 121.84788 | 23201 ft | 396 kts | 167° |
| 2026-05-08 06:05 | 8.02705 | 121.85284 | 22738 ft | 392 kts | 166° |
| 2026-05-08 06:06 | 8.00022 | 121.85779 | 22277 ft | 389 kts | 166° |
| 2026-05-08 06:06 | 7.97370 | 121.86267 | 21827 ft | 387 kts | 166° |
| 2026-05-08 06:06 | 7.94719 | 121.86756 | 21356 ft | 385 kts | 166° |
| 2026-05-08 06:06 | 7.92072 | 121.87245 | 20882 ft | 383 kts | 166° |
| 2026-05-08 06:07 | 7.89442 | 121.87730 | 20407 ft | 382 kts | 166° |
| 2026-05-08 06:07 | 7.86826 | 121.88210 | 19932 ft | 380 kts | 166° |
| 2026-05-08 06:07 | 7.84228 | 121.88689 | 19464 ft | 378 kts | 166° |
| 2026-05-08 06:07 | 7.81646 | 121.89164 | 19000 ft | 377 kts | 166° |
| 2026-05-08 06:08 | 7.79061 | 121.89639 | 18527 ft | 375 kts | 167° |
| 2026-05-08 06:08 | 7.76480 | 121.90114 | 18060 ft | 374 kts | 166° |
| 2026-05-08 06:08 | 7.73935 | 121.90582 | 17596 ft | 372 kts | 167° |
| 2026-05-08 06:08 | 7.71389 | 121.91048 | 17129 ft | 370 kts | 167° |
| 2026-05-08 06:09 | 7.68858 | 121.91514 | 16665 ft | 369 kts | 167° |
| 2026-05-08 06:09 | 7.66316 | 121.91981 | 16190 ft | 367 kts | 167° |
| 2026-05-08 06:09 | 7.63806 | 121.92442 | 15723 ft | 365 kts | 167° |
| 2026-05-08 06:09 | 7.61306 | 121.92899 | 15256 ft | 364 kts | 167° |
| 2026-05-08 06:10 | 7.58801 | 121.93359 | 14783 ft | 363 kts | 167° |
| 2026-05-08 06:10 | 7.56316 | 121.93816 | 14312 ft | 362 kts | 167° |
| 2026-05-08 06:10 | 7.53816 | 121.94276 | 13839 ft | 360 kts | 167° |
| 2026-05-08 06:10 | 7.51347 | 121.94730 | 13369 ft | 358 kts | 167° |
| 2026-05-08 06:11 | 7.48906 | 121.95178 | 12908 ft | 356 kts | 167° |
| 2026-05-08 06:11 | 7.46485 | 121.95623 | 12452 ft | 354 kts | 167° |
| 2026-05-08 06:11 | 7.44039 | 121.96072 | 11992 ft | 351 kts | 167° |
| 2026-05-08 06:11 | 7.41624 | 121.96515 | 11536 ft | 349 kts | 167° |
| 2026-05-08 06:12 | 7.39256 | 121.96948 | 11084 ft | 346 kts | 167° |
| 2026-05-08 06:12 | 7.36881 | 121.97384 | 10630 ft | 343 kts | 167° |
| 2026-05-08 06:12 | 7.34548 | 121.97685 | 10335 ft | 336 kts | 179° |
| 2026-05-08 06:12 | 7.32282 | 121.97147 | 10168 ft | 329 kts | 203° |
| 2026-05-08 06:13 | 7.30338 | 121.95991 | 10056 ft | 317 kts | 210° |
| 2026-05-08 06:13 | 7.28519 | 121.94804 | 9826 ft | 310 kts | 211° |
| 2026-05-08 06:13 | 7.26704 | 121.93617 | 9426 ft | 308 kts | 211° |
| 2026-05-08 06:13 | 7.24902 | 121.92454 | 9036 ft | 306 kts | 210° |
| 2026-05-08 06:14 | 7.23117 | 121.91309 | 8657 ft | 304 kts | 210° |
| 2026-05-08 06:14 | 7.21334 | 121.90171 | 8258 ft | 302 kts | 210° |
| 2026-05-08 06:14 | 7.19535 | 121.89025 | 7861 ft | 300 kts | 210° |
| 2026-05-08 06:14 | 7.17770 | 121.87904 | 7482 ft | 298 kts | 210° |
| 2026-05-08 06:15 | 7.16040 | 121.86804 | 7118 ft | 296 kts | 210° |
| 2026-05-08 06:15 | 7.14289 | 121.85692 | 6751 ft | 294 kts | 211° |
| 2026-05-08 06:15 | 7.12566 | 121.84597 | 6387 ft | 291 kts | 211° |
| 2026-05-08 06:15 | 7.10842 | 121.83540 | 6011 ft | 288 kts | 204° |
| 2026-05-08 06:16 | 7.08928 | 121.82986 | 5628 ft | 283 kts | 183° |
| 2026-05-08 06:16 | 7.06977 | 121.83002 | 5275 ft | 279 kts | 175° |
| 2026-05-08 06:16 | 7.05044 | 121.83115 | 4916 ft | 276 kts | 175° |
| 2026-05-08 06:16 | 7.03129 | 121.83229 | 4561 ft | 275 kts | 175° |
| 2026-05-08 06:17 | 6.99320 | 121.83427 | 3855 ft | 271 kts | 175° |
| 2026-05-08 06:17 | 6.97433 | 121.83518 | 3602 ft | 264 kts | 176° |
| 2026-05-08 06:17 | 6.95658 | 121.83615 | 3528 ft | 246 kts | 171° |
| 2026-05-08 06:18 | 6.94148 | 121.84228 | 3378 ft | 227 kts | 134° |
| 2026-05-08 06:18 | 6.93450 | 121.85532 | 3387 ft | 202 kts | 101° |
| 2026-05-08 06:18 | 6.93365 | 121.86879 | 3284 ft | 185 kts | 91° |
| 2026-05-08 06:18 | 6.93338 | 121.88120 | 3112 ft | 171 kts | 91° |
| 2026-05-08 06:19 | 6.93302 | 121.89272 | 2958 ft | 156 kts | 92° |
| 2026-05-08 06:19 | 6.93255 | 121.90323 | 2826 ft | 145 kts | 93° |
| 2026-05-08 06:19 | 6.93202 | 121.91340 | 2709 ft | 145 kts | 94° |
| 2026-05-08 06:19 | 6.93141 | 121.92364 | 2454 ft | 144 kts | 94° |
| 2026-05-08 06:20 | 6.93077 | 121.93366 | 2243 ft | 143 kts | 94° |
| 2026-05-08 06:20 | 6.93012 | 121.94370 | 2049 ft | 143 kts | 94° |
| 2026-05-08 06:20 | 6.92947 | 121.95364 | 1864 ft | 143 kts | 94° |
| 2026-05-08 06:20 | 6.92880 | 121.96359 | 1673 ft | 143 kts | 94° |
| 2026-05-08 06:21 | 6.92813 | 121.97358 | 1488 ft | 143 kts | 93° |
| 2026-05-08 06:21 | 6.92748 | 121.98377 | 1297 ft | 142 kts | 94° |
| 2026-05-08 06:21 | 6.92682 | 121.99367 | 1111 ft | 142 kts | 94° |
| 2026-05-08 06:21 | 6.92618 | 122.00361 | 920 ft | 142 kts | 94° |
| 2026-05-08 06:22 | 6.92550 | 122.01347 | 734 ft | 142 kts | 94° |
| 2026-05-08 06:22 | 6.92486 | 122.02337 | 544 ft | 142 kts | 94° |
| 2026-05-08 06:22 | 6.92418 | 122.03330 | 371 ft | 141 kts | 95° |
| 2026-05-08 06:22 | 6.92362 | 122.04312 | 187 ft | 142 kts | 95° |
| 2026-05-08 06:23 | 6.92289 | 122.05300 | 74 ft | 137 kts | 93° |
| 2026-05-08 06:23 | 6.92234 | 122.06057 | 67 ft | 66 kts | 93° |
| 2026-05-08 06:23 | 6.92183 | 122.06251 | 67 ft | 14 kts | 228° |
| 2026-05-08 06:23 | 6.92149 | 122.06183 | 67 ft | 7 kts | 216° |
| 2026-05-08 06:24 | 6.92105 | 122.06168 | 67 ft | 4 kts | 179° |
| 2026-05-08 06:24 | 6.92075 | 122.06176 | 67 ft | 5 kts | 158° |
| 2026-05-08 06:24 | 6.92057 | 122.06184 | 67 ft | 1 kts | 155° |
| 2026-05-08 06:24 | 6.92054 | 122.06185 | 67 ft | 0 kts | 155° |